sensor_id;sensor_type;location;lat;lon;timestamp;temperature;humidity
15095;DHT22;7648;52.264;9.632;2022-12-29T00:01:35;8.90;99.90
15095;DHT22;7648;52.264;9.632;2022-12-29T00:05:37;8.90;99.90
15095;DHT22;7648;52.264;9.632;2022-12-29T00:09:39;9.00;99.90
15095;DHT22;7648;52.264;9.632;2022-12-29T00:13:41;9.10;99.90
15095;DHT22;7648;52.264;9.632;2022-12-29T00:18:01;9.20;99.90
15095;DHT22;7648;52.264;9.632;2022-12-29T00:22:04;9.30;99.90
15095;DHT22;7648;52.264;9.632;2022-12-29T00:26:23;9.40;99.90
15095;DHT22;7648;52.264;9.632;2022-12-29T00:30:43;9.40;99.90
15095;DHT22;7648;52.264;9.632;2022-12-29T00:35:04;9.50;99.90
15095;DHT22;7648;52.264;9.632;2022-12-29T00:39:13;9.50;99.90
15095;DHT22;7648;52.264;9.632;2022-12-29T00:43:33;9.50;99.90
15095;DHT22;7648;52.264;9.632;2022-12-29T00:47:52;9.50;99.90
15095;DHT22;7648;52.264;9.632;2022-12-29T00:51:57;9.50;99.90
15095;DHT22;7648;52.264;9.632;2022-12-29T00:55:59;9.60;99.90
15095;DHT22;7648;52.264;9.632;2022-12-29T01:00:01;9.60;99.90
15095;DHT22;7648;52.264;9.632;2022-12-29T01:04:04;9.50;99.90
15095;DHT22;7648;52.264;9.632;2022-12-29T01:08:07;9.50;99.90
15095;DHT22;7648;52.264;9.632;2022-12-29T01:12:09;9.50;99.90
15095;DHT22;7648;52.264;9.632;2022-12-29T01:16:11;9.50;99.90
15095;DHT22;7648;52.264;9.632;2022-12-29T01:20:13;9.60;99.90
15095;DHT22;7648;52.264;9.632;2022-12-29T01:24:18;9.50;99.90
15095;DHT22;7648;52.264;9.632;2022-12-29T01:28:21;9.60;99.90
15095;DHT22;7648;52.264;9.632;2022-12-29T01:32:23;9.60;99.90
15095;DHT22;7648;52.264;9.632;2022-12-29T01:36:25;9.60;99.90
15095;DHT22;7648;52.264;9.632;2022-12-29T01:40:28;9.50;99.90
15095;DHT22;7648;52.264;9.632;2022-12-29T01:44:48;9.50;99.90
15095;DHT22;7648;52.264;9.632;2022-12-29T01:48:53;9.60;99.90
15095;DHT22;7648;52.264;9.632;2022-12-29T01:53:00;9.60;99.90
15095;DHT22;7648;52.264;9.632;2022-12-29T01:57:08;9.80;99.90
15095;DHT22;7648;52.264;9.632;2022-12-29T02:01:12;9.80;99.90
15095;DHT22;7648;52.264;9.632;2022-12-29T02:05:18;9.90;99.90
15095;DHT22;7648;52.264;9.632;2022-12-29T02:09:23;9.90;99.90
15095;DHT22;7648;52.264;9.632;2022-12-29T02:13:27;10.00;99.90
15095;DHT22;7648;52.264;9.632;2022-12-29T02:17:45;9.90;99.90
15095;DHT22;7648;52.264;9.632;2022-12-29T02:22:14;9.80;99.90
15095;DHT22;7648;52.264;9.632;2022-12-29T02:26:36;9.80;99.90
15095;DHT22;7648;52.264;9.632;2022-12-29T02:30:55;10.00;99.90
15095;DHT22;7648;52.264;9.632;2022-12-29T02:35:06;10.10;99.90
15095;DHT22;7648;52.264;9.632;2022-12-29T02:39:20;10.20;99.90
15095;DHT22;7648;52.264;9.632;2022-12-29T02:43:26;10.20;99.90
15095;DHT22;7648;52.264;9.632;2022-12-29T02:47:36;10.20;99.90
15095;DHT22;7648;52.264;9.632;2022-12-29T02:51:46;10.30;99.90
15095;DHT22;7648;52.264;9.632;2022-12-29T02:55:51;10.30;99.90
15095;DHT22;7648;52.264;9.632;2022-12-29T02:59:56;10.20;99.90
15095;DHT22;7648;52.264;9.632;2022-12-29T03:04:13;10.10;99.90
15095;DHT22;7648;52.264;9.632;2022-12-29T03:08:25;10.10;99.90
15095;DHT22;7648;52.264;9.632;2022-12-29T03:12:36;10.10;99.90
15095;DHT22;7648;52.264;9.632;2022-12-29T03:17:01;10.20;99.90
15095;DHT22;7648;52.264;9.632;2022-12-29T03:21:09;10.30;99.90
15095;DHT22;7648;52.264;9.632;2022-12-29T03:25:15;10.30;99.90
15095;DHT22;7648;52.264;9.632;2022-12-29T03:29:20;10.20;99.90
15095;DHT22;7648;52.264;9.632;2022-12-29T03:33:26;10.20;99.90
15095;DHT22;7648;52.264;9.632;2022-12-29T03:37:36;10.30;99.90
15095;DHT22;7648;52.264;9.632;2022-12-29T03:41:42;10.40;99.90
15095;DHT22;7648;52.264;9.632;2022-12-29T03:45:45;10.40;99.90
15095;DHT22;7648;52.264;9.632;2022-12-29T03:49:47;10.50;99.90
15095;DHT22;7648;52.264;9.632;2022-12-29T03:53:51;10.70;99.90
15095;DHT22;7648;52.264;9.632;2022-12-29T03:57:53;10.80;99.90
15095;DHT22;7648;52.264;9.632;2022-12-29T04:02:05;10.70;99.90
15095;DHT22;7648;52.264;9.632;2022-12-29T04:06:07;10.70;99.90
15095;DHT22;7648;52.264;9.632;2022-12-29T04:10:20;10.70;99.90
15095;DHT22;7648;52.264;9.632;2022-12-29T04:14:25;10.70;99.90
15095;DHT22;7648;52.264;9.632;2022-12-29T04:18:27;10.70;99.90
15095;DHT22;7648;52.264;9.632;2022-12-29T04:22:29;10.90;99.90
15095;DHT22;7648;52.264;9.632;2022-12-29T04:26:33;10.90;99.90
15095;DHT22;7648;52.264;9.632;2022-12-29T04:30:54;10.90;99.90
15095;DHT22;7648;52.264;9.632;2022-12-29T04:35:08;10.80;99.90
15095;DHT22;7648;52.264;9.632;2022-12-29T04:39:10;10.80;99.90
15095;DHT22;7648;52.264;9.632;2022-12-29T04:43:16;10.80;99.90
15095;DHT22;7648;52.264;9.632;2022-12-29T04:47:48;10.90;99.90
15095;DHT22;7648;52.264;9.632;2022-12-29T04:52:08;10.90;99.90
15095;DHT22;7648;52.264;9.632;2022-12-29T04:56:12;10.90;99.90
15095;DHT22;7648;52.264;9.632;2022-12-29T05:00:16;11.00;99.90
15095;DHT22;7648;52.264;9.632;2022-12-29T05:04:18;10.90;99.90
15095;DHT22;7648;52.264;9.632;2022-12-29T05:08:19;10.90;99.90
15095;DHT22;7648;52.264;9.632;2022-12-29T05:12:21;11.00;99.90
15095;DHT22;7648;52.264;9.632;2022-12-29T05:16:35;11.10;99.90
15095;DHT22;7648;52.264;9.632;2022-12-29T05:20:37;11.10;99.90
15095;DHT22;7648;52.264;9.632;2022-12-29T05:24:39;11.10;99.90
15095;DHT22;7648;52.264;9.632;2022-12-29T05:28:42;11.10;99.90
15095;DHT22;7648;52.264;9.632;2022-12-29T05:32:49;11.20;99.90
15095;DHT22;7648;52.264;9.632;2022-12-29T05:36:52;11.20;99.90
15095;DHT22;7648;52.264;9.632;2022-12-29T05:40:54;11.20;99.90
15095;DHT22;7648;52.264;9.632;2022-12-29T05:45:25;11.20;99.90
15095;DHT22;7648;52.264;9.632;2022-12-29T05:50:00;11.00;99.90
15095;DHT22;7648;52.264;9.632;2022-12-29T05:54:24;10.90;99.90
15095;DHT22;7648;52.264;9.632;2022-12-29T05:58:26;10.70;99.90
15095;DHT22;7648;52.264;9.632;2022-12-29T06:02:28;10.60;99.90
15095;DHT22;7648;52.264;9.632;2022-12-29T06:06:32;10.60;99.90
15095;DHT22;7648;52.264;9.632;2022-12-29T06:10:34;10.50;99.90
15095;DHT22;7648;52.264;9.632;2022-12-29T06:14:39;10.40;99.90
15095;DHT22;7648;52.264;9.632;2022-12-29T06:18:42;10.40;99.90
15095;DHT22;7648;52.264;9.632;2022-12-29T06:22:46;10.40;99.90
15095;DHT22;7648;52.264;9.632;2022-12-29T06:26:48;10.40;99.90
15095;DHT22;7648;52.264;9.632;2022-12-29T06:30:51;10.50;99.90
15095;DHT22;7648;52.264;9.632;2022-12-29T06:34:53;10.50;99.90
15095;DHT22;7648;52.264;9.632;2022-12-29T06:38:56;10.60;99.90
15095;DHT22;7648;52.264;9.632;2022-12-29T06:42:58;10.80;99.90
15095;DHT22;7648;52.264;9.632;2022-12-29T06:47:19;10.90;99.90
15095;DHT22;7648;52.264;9.632;2022-12-29T06:51:21;11.00;99.90
15095;DHT22;7648;52.264;9.632;2022-12-29T06:55:24;11.20;99.90
15095;DHT22;7648;52.264;9.632;2022-12-29T06:59:26;11.20;99.90
15095;DHT22;7648;52.264;9.632;2022-12-29T07:03:28;11.10;99.90
15095;DHT22;7648;52.264;9.632;2022-12-29T07:07:30;11.00;99.90
15095;DHT22;7648;52.264;9.632;2022-12-29T07:11:33;11.00;99.90
15095;DHT22;7648;52.264;9.632;2022-12-29T07:15:36;11.00;99.90
15095;DHT22;7648;52.264;9.632;2022-12-29T07:19:38;11.00;99.90
15095;DHT22;7648;52.264;9.632;2022-12-29T07:23:39;11.20;99.90
15095;DHT22;7648;52.264;9.632;2022-12-29T07:27:43;11.20;99.90
15095;DHT22;7648;52.264;9.632;2022-12-29T07:31:45;11.20;99.90
15095;DHT22;7648;52.264;9.632;2022-12-29T07:35:47;11.10;99.90
15095;DHT22;7648;52.264;9.632;2022-12-29T07:39:48;10.90;99.90
15095;DHT22;7648;52.264;9.632;2022-12-29T07:43:52;10.70;99.90
15095;DHT22;7648;52.264;9.632;2022-12-29T07:48:09;10.60;99.90
15095;DHT22;7648;52.264;9.632;2022-12-29T07:52:11;10.40;99.90
15095;DHT22;7648;52.264;9.632;2022-12-29T07:56:13;10.40;99.90
15095;DHT22;7648;52.264;9.632;2022-12-29T08:00:16;10.30;99.90
15095;DHT22;7648;52.264;9.632;2022-12-29T08:04:18;10.20;99.90
15095;DHT22;7648;52.264;9.632;2022-12-29T08:08:20;10.10;99.90
15095;DHT22;7648;52.264;9.632;2022-12-29T08:12:22;10.20;99.90
15095;DHT22;7648;52.264;9.632;2022-12-29T08:16:25;10.20;99.90
15095;DHT22;7648;52.264;9.632;2022-12-29T08:20:27;10.30;99.90
15095;DHT22;7648;52.264;9.632;2022-12-29T08:24:29;10.40;99.90
15095;DHT22;7648;52.264;9.632;2022-12-29T08:28:31;10.40;99.90
15095;DHT22;7648;52.264;9.632;2022-12-29T08:32:35;10.30;99.90
15095;DHT22;7648;52.264;9.632;2022-12-29T08:36:37;10.20;99.90
15095;DHT22;7648;52.264;9.632;2022-12-29T08:40:38;10.10;99.90
15095;DHT22;7648;52.264;9.632;2022-12-29T08:44:40;10.10;99.90
15095;DHT22;7648;52.264;9.632;2022-12-29T08:48:44;10.10;99.90
15095;DHT22;7648;52.264;9.632;2022-12-29T08:52:46;10.10;99.90
15095;DHT22;7648;52.264;9.632;2022-12-29T08:56:48;10.00;99.90
15095;DHT22;7648;52.264;9.632;2022-12-29T09:00:52;10.00;99.90
15095;DHT22;7648;52.264;9.632;2022-12-29T09:04:55;10.00;99.90
15095;DHT22;7648;52.264;9.632;2022-12-29T09:08:58;10.00;99.90
15095;DHT22;7648;52.264;9.632;2022-12-29T09:13:00;10.10;99.90
15095;DHT22;7648;52.264;9.632;2022-12-29T09:17:02;10.20;99.90
15095;DHT22;7648;52.264;9.632;2022-12-29T09:21:23;10.20;99.90
15095;DHT22;7648;52.264;9.632;2022-12-29T09:25:25;10.20;99.90
15095;DHT22;7648;52.264;9.632;2022-12-29T09:29:27;10.20;99.90
15095;DHT22;7648;52.264;9.632;2022-12-29T09:33:29;10.10;99.90
15095;DHT22;7648;52.264;9.632;2022-12-29T09:37:34;10.10;99.90
15095;DHT22;7648;52.264;9.632;2022-12-29T09:41:38;10.20;99.90
15095;DHT22;7648;52.264;9.632;2022-12-29T09:45:44;10.20;99.90
15095;DHT22;7648;52.264;9.632;2022-12-29T09:49:49;10.20;99.90
15095;DHT22;7648;52.264;9.632;2022-12-29T09:53:56;10.20;99.90
15095;DHT22;7648;52.264;9.632;2022-12-29T09:58:03;10.20;99.90
15095;DHT22;7648;52.264;9.632;2022-12-29T10:02:16;10.20;99.90
15095;DHT22;7648;52.264;9.632;2022-12-29T10:06:24;10.10;99.90
15095;DHT22;7648;52.264;9.632;2022-12-29T10:10:35;10.10;99.90
15095;DHT22;7648;52.264;9.632;2022-12-29T10:14:51;10.00;99.90
15095;DHT22;7648;52.264;9.632;2022-12-29T10:19:13;9.90;99.90
15095;DHT22;7648;52.264;9.632;2022-12-29T10:23:27;9.90;99.90
15095;DHT22;7648;52.264;9.632;2022-12-29T10:27:32;9.90;99.90
15095;DHT22;7648;52.264;9.632;2022-12-29T10:31:37;10.00;99.90
15095;DHT22;7648;52.264;9.632;2022-12-29T10:35:41;10.10;99.90
15095;DHT22;7648;52.264;9.632;2022-12-29T10:39:45;10.20;99.90
15095;DHT22;7648;52.264;9.632;2022-12-29T10:43:52;10.40;99.90
15095;DHT22;7648;52.264;9.632;2022-12-29T10:47:58;10.60;99.90
15095;DHT22;7648;52.264;9.632;2022-12-29T10:52:03;10.70;99.90
15095;DHT22;7648;52.264;9.632;2022-12-29T10:56:14;10.70;99.90
15095;DHT22;7648;52.264;9.632;2022-12-29T11:00:21;10.70;99.90
15095;DHT22;7648;52.264;9.632;2022-12-29T11:04:32;10.70;99.90
15095;DHT22;7648;52.264;9.632;2022-12-29T11:08:41;10.60;99.90
15095;DHT22;7648;52.264;9.632;2022-12-29T11:12:57;10.60;99.90
15095;DHT22;7648;52.264;9.632;2022-12-29T11:17:02;10.70;99.90
15095;DHT22;7648;52.264;9.632;2022-12-29T11:21:07;10.90;99.90
15095;DHT22;7648;52.264;9.632;2022-12-29T11:25:12;10.90;99.90
15095;DHT22;7648;52.264;9.632;2022-12-29T11:29:21;10.90;99.90
15095;DHT22;7648;52.264;9.632;2022-12-29T11:33:27;10.90;99.90
15095;DHT22;7648;52.264;9.632;2022-12-29T11:37:31;10.90;99.90
15095;DHT22;7648;52.264;9.632;2022-12-29T11:41:35;10.90;99.90
15095;DHT22;7648;52.264;9.632;2022-12-29T11:45:36;11.00;99.90
15095;DHT22;7648;52.264;9.632;2022-12-29T11:49:40;11.00;99.90
15095;DHT22;7648;52.264;9.632;2022-12-29T11:53:44;11.10;99.90
15095;DHT22;7648;52.264;9.632;2022-12-29T11:57:48;11.30;99.90
15095;DHT22;7648;52.264;9.632;2022-12-29T12:01:51;11.40;99.90
15095;DHT22;7648;52.264;9.632;2022-12-29T12:05:56;11.40;99.90
15095;DHT22;7648;52.264;9.632;2022-12-29T12:10:01;11.40;99.90
15095;DHT22;7648;52.264;9.632;2022-12-29T12:14:11;11.40;99.90
15095;DHT22;7648;52.264;9.632;2022-12-29T12:18:43;11.40;99.90
15095;DHT22;7648;52.264;9.632;2022-12-29T12:22:54;11.40;99.90
15095;DHT22;7648;52.264;9.632;2022-12-29T12:27:00;11.30;99.90
15095;DHT22;7648;52.264;9.632;2022-12-29T12:31:11;11.20;99.90
15095;DHT22;7648;52.264;9.632;2022-12-29T12:35:23;11.20;99.90
15095;DHT22;7648;52.264;9.632;2022-12-29T12:39:34;11.20;99.90
15095;DHT22;7648;52.264;9.632;2022-12-29T12:43:43;11.30;99.90
15095;DHT22;7648;52.264;9.632;2022-12-29T12:47:58;11.40;99.90
15095;DHT22;7648;52.264;9.632;2022-12-29T12:52:12;11.30;99.90
15095;DHT22;7648;52.264;9.632;2022-12-29T12:56:39;11.30;99.90
15095;DHT22;7648;52.264;9.632;2022-12-29T13:00:50;11.40;99.90
15095;DHT22;7648;52.264;9.632;2022-12-29T13:05:24;11.40;99.90
15095;DHT22;7648;52.264;9.632;2022-12-29T13:09:47;11.40;99.90
15095;DHT22;7648;52.264;9.632;2022-12-29T13:14:00;11.50;99.90
15095;DHT22;7648;52.264;9.632;2022-12-29T13:18:13;11.40;99.90
15095;DHT22;7648;52.264;9.632;2022-12-29T13:22:27;11.40;99.90
15095;DHT22;7648;52.264;9.632;2022-12-29T13:26:33;11.40;99.90
15095;DHT22;7648;52.264;9.632;2022-12-29T13:30:44;11.40;99.90
15095;DHT22;7648;52.264;9.632;2022-12-29T13:34:51;11.50;99.90
15095;DHT22;7648;52.264;9.632;2022-12-29T13:39:02;11.50;99.90
15095;DHT22;7648;52.264;9.632;2022-12-29T13:43:06;11.50;99.90
15095;DHT22;7648;52.264;9.632;2022-12-29T13:47:16;11.50;99.90
15095;DHT22;7648;52.264;9.632;2022-12-29T13:51:21;11.40;99.90
15095;DHT22;7648;52.264;9.632;2022-12-29T13:55:28;11.40;99.90
15095;DHT22;7648;52.264;9.632;2022-12-29T13:59:37;11.40;99.90
15095;DHT22;7648;52.264;9.632;2022-12-29T14:03:47;11.40;99.90
15095;DHT22;7648;52.264;9.632;2022-12-29T14:07:58;11.30;99.90
15095;DHT22;7648;52.264;9.632;2022-12-29T14:12:01;11.20;99.90
15095;DHT22;7648;52.264;9.632;2022-12-29T14:16:04;11.30;99.90
15095;DHT22;7648;52.264;9.632;2022-12-29T14:20:18;11.30;99.90
15095;DHT22;7648;52.264;9.632;2022-12-29T14:24:39;11.20;99.90
15095;DHT22;7648;52.264;9.632;2022-12-29T14:28:43;11.20;99.90
15095;DHT22;7648;52.264;9.632;2022-12-29T14:33:01;11.10;99.90
15095;DHT22;7648;52.264;9.632;2022-12-29T14:37:23;11.10;99.90
15095;DHT22;7648;52.264;9.632;2022-12-29T14:41:29;11.10;99.90
15095;DHT22;7648;52.264;9.632;2022-12-29T14:45:31;11.10;99.90
15095;DHT22;7648;52.264;9.632;2022-12-29T14:49:40;11.00;99.90
15095;DHT22;7648;52.264;9.632;2022-12-29T14:53:47;11.00;99.90
15095;DHT22;7648;52.264;9.632;2022-12-29T14:57:51;10.90;99.90
15095;DHT22;7648;52.264;9.632;2022-12-29T15:01:55;10.90;99.90
15095;DHT22;7648;52.264;9.632;2022-12-29T15:06:03;10.80;99.90
15095;DHT22;7648;52.264;9.632;2022-12-29T15:10:13;10.70;99.90
15095;DHT22;7648;52.264;9.632;2022-12-29T15:14:34;10.60;99.90
15095;DHT22;7648;52.264;9.632;2022-12-29T15:18:36;10.60;99.90
15095;DHT22;7648;52.264;9.632;2022-12-29T15:22:44;10.60;99.90
15095;DHT22;7648;52.264;9.632;2022-12-29T15:26:51;10.60;99.90
15095;DHT22;7648;52.264;9.632;2022-12-29T15:30:55;10.50;99.90
15095;DHT22;7648;52.264;9.632;2022-12-29T15:34:58;10.50;99.90
15095;DHT22;7648;52.264;9.632;2022-12-29T15:39:18;10.50;99.90
15095;DHT22;7648;52.264;9.632;2022-12-29T15:43:30;10.40;99.90
15095;DHT22;7648;52.264;9.632;2022-12-29T15:47:34;10.30;99.90
15095;DHT22;7648;52.264;9.632;2022-12-29T15:51:37;10.20;99.90
15095;DHT22;7648;52.264;9.632;2022-12-29T15:55:41;10.10;99.90
15095;DHT22;7648;52.264;9.632;2022-12-29T15:59:46;10.10;99.90
15095;DHT22;7648;52.264;9.632;2022-12-29T16:03:50;10.10;99.90
15095;DHT22;7648;52.264;9.632;2022-12-29T16:07:55;10.20;99.90
15095;DHT22;7648;52.264;9.632;2022-12-29T16:11:59;10.10;99.90
15095;DHT22;7648;52.264;9.632;2022-12-29T16:16:08;10.10;99.90
15095;DHT22;7648;52.264;9.632;2022-12-29T16:20:17;10.00;99.90
15095;DHT22;7648;52.264;9.632;2022-12-29T16:24:23;10.00;99.90
15095;DHT22;7648;52.264;9.632;2022-12-29T16:28:34;10.00;99.90
15095;DHT22;7648;52.264;9.632;2022-12-29T16:32:45;10.00;99.90
15095;DHT22;7648;52.264;9.632;2022-12-29T16:36:54;10.00;99.90
15095;DHT22;7648;52.264;9.632;2022-12-29T16:40:57;10.00;99.90
15095;DHT22;7648;52.264;9.632;2022-12-29T16:49:39;10.10;99.90
15095;DHT22;7648;52.264;9.632;2022-12-29T16:53:47;10.10;99.90
15095;DHT22;7648;52.264;9.632;2022-12-29T16:57:51;10.20;99.90
15095;DHT22;7648;52.264;9.632;2022-12-29T17:01:56;10.10;99.90
15095;DHT22;7648;52.264;9.632;2022-12-29T17:06:00;10.20;99.90
15095;DHT22;7648;52.264;9.632;2022-12-29T17:10:02;10.20;99.90
15095;DHT22;7648;52.264;9.632;2022-12-29T17:14:04;10.20;99.90
15095;DHT22;7648;52.264;9.632;2022-12-29T17:18:07;10.20;99.90
15095;DHT22;7648;52.264;9.632;2022-12-29T17:22:15;10.10;99.90
15095;DHT22;7648;52.264;9.632;2022-12-29T17:26:17;10.10;99.90
15095;DHT22;7648;52.264;9.632;2022-12-29T17:30:20;10.00;99.90
15095;DHT22;7648;52.264;9.632;2022-12-29T17:34:22;9.90;99.90
15095;DHT22;7648;52.264;9.632;2022-12-29T17:38:28;9.80;99.90
15095;DHT22;7648;52.264;9.632;2022-12-29T17:42:31;9.80;99.90
15095;DHT22;7648;52.264;9.632;2022-12-29T17:46:34;9.70;99.90
15095;DHT22;7648;52.264;9.632;2022-12-29T17:50:36;9.70;99.90
15095;DHT22;7648;52.264;9.632;2022-12-29T17:54:41;9.70;99.90
15095;DHT22;7648;52.264;9.632;2022-12-29T17:58:44;9.50;99.90
15095;DHT22;7648;52.264;9.632;2022-12-29T18:02:47;9.60;99.90
15095;DHT22;7648;52.264;9.632;2022-12-29T18:06:49;9.60;99.90
15095;DHT22;7648;52.264;9.632;2022-12-29T18:10:53;9.70;99.90
15095;DHT22;7648;52.264;9.632;2022-12-29T18:14:55;9.70;99.90
15095;DHT22;7648;52.264;9.632;2022-12-29T18:18:57;9.70;99.90
15095;DHT22;7648;52.264;9.632;2022-12-29T18:22:59;9.70;99.90
15095;DHT22;7648;52.264;9.632;2022-12-29T18:27:10;9.80;99.90
15095;DHT22;7648;52.264;9.632;2022-12-29T18:31:16;9.80;99.90
15095;DHT22;7648;52.264;9.632;2022-12-29T18:35:22;9.90;99.90
15095;DHT22;7648;52.264;9.632;2022-12-29T18:39:26;10.00;99.90
15095;DHT22;7648;52.264;9.632;2022-12-29T18:43:29;9.80;99.90
15095;DHT22;7648;52.264;9.632;2022-12-29T18:47:31;9.50;99.90
15095;DHT22;7648;52.264;9.632;2022-12-29T18:51:33;9.20;99.90
15095;DHT22;7648;52.264;9.632;2022-12-29T18:55:35;9.10;99.90
15095;DHT22;7648;52.264;9.632;2022-12-29T18:59:38;9.00;99.90
15095;DHT22;7648;52.264;9.632;2022-12-29T19:03:40;9.10;99.90
15095;DHT22;7648;52.264;9.632;2022-12-29T19:07:42;9.10;99.90
15095;DHT22;7648;52.264;9.632;2022-12-29T19:11:44;9.20;99.90
15095;DHT22;7648;52.264;9.632;2022-12-29T19:15:47;9.30;99.90
15095;DHT22;7648;52.264;9.632;2022-12-29T19:19:49;9.50;99.90
15095;DHT22;7648;52.264;9.632;2022-12-29T19:23:51;9.60;99.90
15095;DHT22;7648;52.264;9.632;2022-12-29T19:27:53;9.70;99.90
15095;DHT22;7648;52.264;9.632;2022-12-29T19:31:56;9.60;99.90
15095;DHT22;7648;52.264;9.632;2022-12-29T19:35:59;9.60;99.90
15095;DHT22;7648;52.264;9.632;2022-12-29T19:40:02;9.50;99.90
15095;DHT22;7648;52.264;9.632;2022-12-29T19:44:04;9.50;99.90
15095;DHT22;7648;52.264;9.632;2022-12-29T19:48:12;9.40;99.90
15095;DHT22;7648;52.264;9.632;2022-12-29T19:52:14;9.40;99.90
15095;DHT22;7648;52.264;9.632;2022-12-29T19:56:17;9.40;99.90
15095;DHT22;7648;52.264;9.632;2022-12-29T20:00:18;9.40;99.90
15095;DHT22;7648;52.264;9.632;2022-12-29T20:04:22;9.40;99.90
15095;DHT22;7648;52.264;9.632;2022-12-29T20:08:24;9.30;99.90
15095;DHT22;7648;52.264;9.632;2022-12-29T20:12:26;9.20;99.90
15095;DHT22;7648;52.264;9.632;2022-12-29T20:16:28;9.20;99.90
15095;DHT22;7648;52.264;9.632;2022-12-29T20:20:33;9.10;99.90
15095;DHT22;7648;52.264;9.632;2022-12-29T20:24:36;9.00;99.90
15095;DHT22;7648;52.264;9.632;2022-12-29T20:28:38;8.90;99.90
15095;DHT22;7648;52.264;9.632;2022-12-29T20:32:40;8.90;99.90
15095;DHT22;7648;52.264;9.632;2022-12-29T20:36:45;8.80;99.90
15095;DHT22;7648;52.264;9.632;2022-12-29T20:40:47;8.70;99.90
15095;DHT22;7648;52.264;9.632;2022-12-29T20:44:49;8.80;99.90
15095;DHT22;7648;52.264;9.632;2022-12-29T20:48:51;8.80;99.90
15095;DHT22;7648;52.264;9.632;2022-12-29T20:52:54;8.70;99.90
15095;DHT22;7648;52.264;9.632;2022-12-29T20:56:56;8.70;99.90
15095;DHT22;7648;52.264;9.632;2022-12-29T21:01:01;8.70;99.90
15095;DHT22;7648;52.264;9.632;2022-12-29T21:05:03;8.60;99.90
15095;DHT22;7648;52.264;9.632;2022-12-29T21:09:07;8.50;99.90
15095;DHT22;7648;52.264;9.632;2022-12-29T21:13:09;8.50;99.90
15095;DHT22;7648;52.264;9.632;2022-12-29T21:17:10;8.50;99.90
15095;DHT22;7648;52.264;9.632;2022-12-29T21:21:15;8.50;99.90
15095;DHT22;7648;52.264;9.632;2022-12-29T21:25:18;8.60;99.90
15095;DHT22;7648;52.264;9.632;2022-12-29T21:29:20;8.60;99.90
15095;DHT22;7648;52.264;9.632;2022-12-29T21:33:22;8.60;99.90
15095;DHT22;7648;52.264;9.632;2022-12-29T21:37:24;8.60;99.90
15095;DHT22;7648;52.264;9.632;2022-12-29T21:41:27;8.60;99.90
15095;DHT22;7648;52.264;9.632;2022-12-29T21:45:29;8.60;99.90
15095;DHT22;7648;52.264;9.632;2022-12-29T21:49:33;8.50;99.90
15095;DHT22;7648;52.264;9.632;2022-12-29T21:53:36;8.50;99.90
15095;DHT22;7648;52.264;9.632;2022-12-29T21:57:40;8.50;99.90
15095;DHT22;7648;52.264;9.632;2022-12-29T22:01:59;8.50;99.90
15095;DHT22;7648;52.264;9.632;2022-12-29T22:06:19;8.50;99.90
15095;DHT22;7648;52.264;9.632;2022-12-29T22:10:40;8.50;99.90
15095;DHT22;7648;52.264;9.632;2022-12-29T22:15:01;8.50;99.90
15095;DHT22;7648;52.264;9.632;2022-12-29T22:19:03;8.50;99.90
15095;DHT22;7648;52.264;9.632;2022-12-29T22:23:05;8.40;99.90
15095;DHT22;7648;52.264;9.632;2022-12-29T22:27:07;8.40;99.90
15095;DHT22;7648;52.264;9.632;2022-12-29T22:31:22;8.40;99.90
15095;DHT22;7648;52.264;9.632;2022-12-29T22:35:27;8.50;99.90
15095;DHT22;7648;52.264;9.632;2022-12-29T22:39:29;8.40;99.90
15095;DHT22;7648;52.264;9.632;2022-12-29T22:43:30;8.40;99.90
15095;DHT22;7648;52.264;9.632;2022-12-29T22:47:34;8.50;99.90
15095;DHT22;7648;52.264;9.632;2022-12-29T22:51:36;8.40;99.90
15095;DHT22;7648;52.264;9.632;2022-12-29T22:55:37;8.30;99.90
15095;DHT22;7648;52.264;9.632;2022-12-29T22:59:39;8.30;99.90
15095;DHT22;7648;52.264;9.632;2022-12-29T23:03:43;8.30;99.90
15095;DHT22;7648;52.264;9.632;2022-12-29T23:07:45;8.30;99.90
15095;DHT22;7648;52.264;9.632;2022-12-29T23:11:47;8.30;99.90
15095;DHT22;7648;52.264;9.632;2022-12-29T23:15:49;8.20;99.90
15095;DHT22;7648;52.264;9.632;2022-12-29T23:19:53;8.20;99.90
15095;DHT22;7648;52.264;9.632;2022-12-29T23:23:55;8.20;99.90
15095;DHT22;7648;52.264;9.632;2022-12-29T23:27:57;8.20;99.90
15095;DHT22;7648;52.264;9.632;2022-12-29T23:31:58;8.30;99.90
15095;DHT22;7648;52.264;9.632;2022-12-29T23:36:02;8.30;99.90
15095;DHT22;7648;52.264;9.632;2022-12-29T23:40:05;8.30;99.90
15095;DHT22;7648;52.264;9.632;2022-12-29T23:44:08;8.20;99.90
15095;DHT22;7648;52.264;9.632;2022-12-29T23:48:09;8.20;99.90
15095;DHT22;7648;52.264;9.632;2022-12-29T23:52:14;8.20;99.90
15095;DHT22;7648;52.264;9.632;2022-12-29T23:56:18;8.20;99.90
